createdAt,value
2018-07-24T06:43:35.493Z,98.00
2018-07-24T06:46:04.025Z,95.70
2018-07-24T06:48:32.559Z,95.50
2018-07-24T06:51:01.163Z,95.20
2018-07-24T06:53:29.667Z,94.80
2018-07-24T06:55:58.269Z,94.50
2018-07-24T06:58:26.897Z,94.00
2018-07-24T07:00:55.458Z,93.70
2018-07-24T07:03:23.998Z,93.10
2018-07-24T07:05:52.618Z,92.80
2018-07-24T07:08:21.280Z,92.50
2018-07-24T07:10:50.234Z,92.00
2018-07-24T07:13:19.798Z,91.90
2018-07-24T07:15:48.296Z,91.40
2018-07-24T07:18:17.826Z,91.20
2018-07-24T07:20:46.419Z,91.10
2018-07-24T07:23:15.058Z,90.60
2018-07-24T07:25:44.445Z,90.10
2018-07-24T07:28:15.312Z,89.60
2018-07-24T07:30:44.599Z,88.50
2018-07-24T07:33:14.486Z,87.60
2018-07-24T07:35:43.139Z,87.00
2018-07-24T07:38:13.532Z,85.80
2018-07-24T07:40:42.134Z,84.50
2018-07-24T07:43:10.753Z,83.10
2018-07-24T07:45:40.099Z,83.00
2018-07-24T07:48:09.778Z,82.90
2018-07-24T07:50:38.365Z,82.40
2018-07-24T07:53:06.948Z,81.90
2018-07-24T07:55:36.685Z,80.80
2018-07-24T07:58:06.411Z,79.40
2018-07-24T08:00:36.787Z,79.30
2018-07-24T08:03:07.590Z,78.90
2018-07-24T08:05:37.174Z,78.90
2018-07-24T08:08:06.770Z,76.90
2018-07-24T08:13:04.213Z,77.10
2018-07-24T08:15:34.245Z,77.10
2018-07-24T08:18:02.898Z,77.10
2018-07-24T08:20:31.677Z,76.80
2018-07-24T08:23:00.928Z,73.90
2018-07-24T08:25:30.300Z,73.20
2018-07-24T08:28:01.062Z,73.60
2018-07-24T08:30:29.643Z,70.60
2018-07-24T08:32:58.256Z,71.60
2018-07-24T08:35:27.462Z,71.10
2018-07-24T08:37:56.348Z,70.00
2018-07-24T08:40:26.829Z,68.60
2018-07-24T08:42:55.392Z,66.60
2018-07-24T08:45:25.284Z,66.30
2018-07-24T08:47:53.933Z,66.20
2018-07-24T08:50:23.369Z,65.50
2018-07-24T08:52:53.270Z,64.70
2018-07-24T08:55:22.974Z,64.30
2018-07-24T08:57:51.208Z,63.70
2018-07-24T09:00:19.869Z,64.10
2018-07-24T09:02:49.565Z,63.40
2018-07-24T09:05:18.164Z,62.30
2018-07-24T09:07:46.754Z,61.10
2018-07-24T09:10:15.454Z,60.60
2018-07-24T09:12:44.017Z,61.30
2018-07-24T09:15:14.516Z,61.20
2018-07-24T09:17:43.202Z,62.00
2018-07-24T09:20:12.628Z,61.00
2018-07-24T09:22:41.300Z,61.00
2018-07-24T09:25:10.829Z,58.30
2018-07-24T09:27:41.351Z,60.20
2018-07-24T09:30:09.952Z,60.00
2018-07-24T09:32:40.166Z,59.70
2018-07-24T09:35:08.731Z,60.00
2018-07-24T09:37:38.411Z,60.20
2018-07-24T09:40:07.953Z,58.80
2018-07-24T09:42:36.731Z,58.70
2018-07-24T09:45:06.141Z,57.80
2018-07-24T09:47:35.596Z,57.80
2018-07-24T09:50:05.451Z,57.90
2018-07-24T09:52:34.624Z,57.30
2018-07-24T09:55:03.259Z,56.60
2018-07-24T09:57:32.922Z,55.50
2018-07-24T10:00:03.172Z,55.60
2018-07-24T10:02:31.819Z,55.10
2018-07-24T10:05:00.345Z,56.00
2018-07-24T10:07:30.138Z,56.20
2018-07-24T10:09:59.472Z,55.80
2018-07-24T10:12:30.908Z,55.50
2018-07-24T10:14:59.459Z,54.80
2018-07-24T10:17:29.994Z,55.50
2018-07-24T10:19:58.623Z,55.70
2018-07-24T10:22:27.916Z,56.50
2018-07-24T10:24:57.265Z,56.00
2018-07-24T10:27:25.871Z,54.90
2018-07-24T10:29:54.589Z,53.70
2018-07-24T10:32:23.155Z,53.20
2018-07-24T10:34:51.738Z,51.90
2018-07-24T10:37:21.006Z,51.00
2018-07-24T10:39:49.670Z,51.10
2018-07-24T10:42:18.866Z,51.60
2018-07-24T10:44:47.344Z,50.50
2018-07-24T10:47:15.926Z,50.30
2018-07-24T10:49:44.455Z,50.50
2018-07-24T10:52:13.119Z,50.60
2018-07-24T10:54:41.814Z,49.40
2018-07-24T10:57:10.497Z,49.20
2018-07-24T10:59:42.582Z,49.20
2018-07-24T11:02:11.484Z,48.50
2018-07-24T11:04:40.942Z,48.60
2018-07-24T11:07:12.738Z,48.30
2018-07-24T11:09:41.470Z,48.20
2018-07-24T11:12:13.376Z,47.90
2018-07-24T11:14:44.671Z,47.10
2018-07-24T11:17:14.849Z,46.40
2018-07-24T11:19:43.604Z,46.90
2018-07-24T11:22:13.698Z,46.90
2018-07-24T11:24:42.423Z,45.80
2018-07-24T11:30:05.103Z,45.60
2018-07-24T11:32:34.723Z,45.00
2018-07-24T11:35:05.184Z,44.50
2018-07-24T11:37:38.044Z,44.60
2018-07-24T11:40:09.464Z,44.40
2018-07-24T11:42:39.635Z,44.10
2018-07-24T11:45:09.761Z,43.40
2018-07-24T11:47:38.379Z,43.90
2018-07-24T11:50:08.824Z,43.60
2018-07-24T11:52:39.177Z,43.50
2018-07-24T11:55:11.300Z,43.20
2018-07-24T11:57:41.356Z,42.90
2018-07-24T12:00:10.807Z,43.20
2018-07-24T12:02:39.458Z,43.00
2018-07-24T12:08:01.424Z,42.60
2018-07-24T12:10:29.976Z,42.50
2018-07-24T12:12:58.569Z,42.50
2018-07-24T12:15:27.208Z,43.10
2018-07-24T12:17:57.320Z,42.20
2018-07-24T12:20:27.141Z,40.90
2018-07-24T12:22:55.752Z,40.70
2018-07-24T12:25:24.907Z,40.70
2018-07-24T12:27:54.462Z,40.40
2018-07-24T12:30:23.565Z,41.00
2018-07-24T12:32:52.107Z,40.90
2018-07-24T12:35:20.665Z,40.30
2018-07-24T12:37:49.211Z,40.50
2018-07-24T12:40:17.930Z,40.20
2018-07-24T12:42:46.492Z,40.00
2018-07-24T12:45:15.010Z,39.30
2018-07-24T12:47:43.605Z,39.30
2018-07-24T12:50:12.196Z,39.20
2018-07-24T12:52:40.835Z,38.60
2018-07-24T12:55:09.462Z,38.50
2018-07-24T12:57:38.165Z,38.20
2018-07-24T13:00:06.686Z,39.40
2018-07-24T13:02:35.202Z,38.70
2018-07-24T13:05:03.783Z,38.30
2018-07-24T13:07:32.485Z,37.60
2018-07-24T13:10:01.054Z,37.70
2018-07-24T13:12:29.657Z,37.70
2018-07-24T13:14:58.288Z,37.80
2018-07-24T13:17:26.914Z,37.40
2018-07-24T13:19:55.534Z,37.60
2018-07-24T13:22:24.134Z,36.90
2018-07-24T13:24:52.700Z,37.20
2018-07-24T13:27:21.261Z,37.10
2018-07-24T13:29:49.934Z,36.50
2018-07-24T13:32:18.588Z,35.40
2018-07-24T13:34:47.152Z,34.90
2018-07-24T13:37:16.825Z,34.70
2018-07-24T13:39:46.242Z,35.10
2018-07-24T13:42:15.472Z,34.10
2018-07-24T13:44:44.063Z,34.70
2018-07-24T13:47:12.751Z,32.30
2018-07-24T13:49:42.181Z,28.60
2018-07-24T13:52:11.827Z,25.60
2018-07-24T13:54:41.509Z,22.10
2018-07-24T13:57:10.078Z,19.40
2018-07-24T13:59:38.633Z,17.60
2018-07-24T14:02:09.851Z,16.40
2018-07-24T14:04:38.912Z,14.70
2018-07-24T14:07:07.730Z,14.00
2018-07-24T14:09:36.302Z,13.40
2018-07-24T14:12:05.045Z,12.50
2018-07-24T14:14:33.626Z,12.00
2018-07-24T14:17:02.211Z,11.20
2018-07-24T14:19:30.702Z,10.80
2018-07-24T14:21:59.282Z,10.30
2018-07-24T14:24:28.037Z,9.90
2018-07-24T14:26:57.131Z,9.80
2018-07-24T14:29:25.644Z,9.50
2018-07-24T14:31:54.212Z,9.30
2018-07-24T14:34:23.571Z,9.30
2018-07-24T14:36:53.349Z,9.20
2018-07-24T14:39:21.922Z,9.10
2018-07-24T14:41:50.504Z,9.00
2018-07-24T14:44:19.718Z,9.10
2018-07-24T14:46:49.350Z,8.80
2018-07-24T14:49:18.635Z,8.90
2018-07-24T14:51:47.959Z,8.80
2018-07-24T14:54:17.177Z,8.70
2018-07-24T14:56:46.279Z,8.60
2018-07-24T14:59:16.456Z,8.60
2018-07-24T15:01:45.020Z,8.70
2018-07-24T15:04:13.609Z,8.90
2018-07-24T15:06:42.209Z,8.90
2018-07-24T15:09:12.134Z,8.90
2018-07-24T15:11:41.178Z,8.70
2018-07-24T15:14:09.847Z,8.70
2018-07-24T15:16:38.395Z,8.50
2018-07-24T15:19:07.100Z,8.50
2018-07-24T15:21:35.765Z,8.40
2018-07-24T15:24:04.379Z,8.40
2018-07-24T15:26:32.912Z,8.50
2018-07-24T15:29:03.079Z,8.50
2018-07-24T15:31:31.716Z,8.80
2018-07-24T15:34:00.314Z,8.70
2018-07-24T15:36:28.948Z,8.70
2018-07-24T15:38:58.490Z,8.70
2018-07-24T15:41:27.191Z,8.70
2018-07-24T15:43:55.658Z,8.70
2018-07-24T15:46:24.429Z,8.70
2018-07-24T15:48:53.713Z,8.60
2018-07-24T15:51:22.304Z,8.80
2018-07-24T15:53:50.854Z,8.70
2018-07-24T15:56:20.658Z,8.60
2018-07-24T15:58:49.148Z,8.70
2018-07-24T16:01:17.874Z,8.80
2018-07-24T16:03:47.107Z,8.90
2018-07-24T16:06:16.772Z,8.90
2018-07-24T16:08:45.301Z,8.80
2018-07-24T16:11:14.577Z,8.80
2018-07-24T16:13:43.137Z,8.70
2018-07-24T16:16:11.660Z,8.80
2018-07-24T16:18:40.332Z,9.00
2018-07-24T16:21:09.541Z,8.90
2018-07-24T16:23:38.830Z,9.10
2018-07-24T16:26:07.375Z,9.10
2018-07-24T16:28:36.018Z,9.10
2018-07-24T16:31:05.601Z,9.20
2018-07-24T16:33:34.160Z,9.40
2018-07-24T16:36:02.733Z,9.30
2018-07-24T16:38:31.301Z,9.50
2018-07-24T16:40:59.861Z,9.30
2018-07-24T16:43:28.351Z,9.40
2018-07-24T16:45:56.963Z,9.60
2018-07-24T16:48:26.131Z,9.60
2018-07-24T16:50:54.713Z,9.60
2018-07-24T16:53:23.239Z,9.90
2018-07-24T16:55:51.817Z,10.00
2018-07-24T16:58:20.445Z,10.00
2018-07-24T17:00:49.023Z,10.00
2018-07-24T17:03:17.691Z,10.20
2018-07-24T17:05:47.147Z,10.70
2018-07-24T17:08:15.876Z,11.70
2018-07-24T17:10:44.395Z,12.80
2018-07-24T17:13:12.952Z,13.50
2018-07-24T17:15:41.540Z,14.40
2018-07-24T17:18:10.324Z,14.50
2018-07-24T17:20:38.896Z,16.10
2018-07-24T17:23:07.459Z,16.70
2018-07-24T17:25:36.120Z,17.80
2018-07-24T17:28:04.824Z,18.80
2018-07-24T17:30:33.413Z,19.80
2018-07-24T17:33:01.952Z,20.80
2018-07-24T17:35:30.553Z,21.30
2018-07-24T17:37:59.132Z,21.90
2018-07-24T17:40:27.688Z,22.40
2018-07-24T17:42:56.685Z,23.00
2018-07-24T17:45:25.222Z,23.80
2018-07-24T17:47:53.811Z,24.60
2018-07-24T17:50:22.412Z,25.00
2018-07-24T17:52:50.986Z,25.50
2018-07-24T17:55:19.568Z,25.90
2018-07-24T17:57:48.094Z,26.30
2018-07-24T18:00:16.875Z,26.40
2018-07-24T18:02:45.419Z,26.60
2018-07-24T18:05:14.021Z,27.40
2018-07-24T18:07:42.681Z,27.80
2018-07-24T18:10:11.239Z,28.30
2018-07-24T18:12:40.020Z,28.50
2018-07-24T18:15:08.886Z,29.30
2018-07-24T18:17:37.581Z,29.80
2018-07-24T18:20:06.188Z,30.00
2018-07-24T18:22:34.752Z,30.60
2018-07-24T18:25:03.282Z,31.20
2018-07-24T18:27:31.822Z,31.90
2018-07-24T18:30:00.452Z,32.20
2018-07-24T18:32:29.030Z,32.60
2018-07-24T18:34:59.065Z,33.30
2018-07-24T18:37:27.772Z,33.40
2018-07-24T18:39:56.372Z,33.90
2018-07-24T18:42:24.961Z,34.30
2018-07-24T18:44:53.512Z,35.00
2018-07-24T18:47:22.213Z,35.80
2018-07-24T18:49:51.772Z,36.60
2018-07-24T18:52:21.205Z,37.50
2018-07-24T18:54:54.375Z,38.50
2018-07-24T18:57:26.688Z,39.40
2018-07-24T18:59:57.372Z,39.40
2018-07-24T19:02:28.352Z,39.80
2018-07-24T19:04:57.593Z,41.10
2018-07-24T19:08:56.823Z,41.70
2018-07-24T19:11:29.647Z,42.00
2018-07-24T19:14:00.847Z,42.30
2018-07-24T19:16:30.618Z,42.70
2018-07-24T19:19:00.791Z,43.30
2018-07-24T19:21:29.375Z,44.00
2018-07-24T19:23:57.940Z,44.80
2018-07-24T19:26:26.590Z,45.40
2018-07-24T19:28:57.762Z,45.90
2018-07-24T19:31:29.410Z,46.20
2018-07-24T19:33:59.002Z,48.00
2018-07-24T19:36:29.525Z,48.00
2018-07-24T19:38:59.269Z,47.90
2018-07-24T19:41:27.958Z,48.30
2018-07-24T19:43:56.684Z,49.20
2018-07-24T19:46:26.041Z,50.10
2018-07-24T19:48:55.798Z,50.80
2018-07-24T19:51:27.243Z,51.00
2018-07-24T19:53:56.516Z,51.70
2018-07-24T19:56:27.121Z,52.40
2018-07-24T19:58:56.398Z,53.10
2018-07-24T20:01:26.160Z,53.60
2018-07-24T20:03:55.130Z,53.90
2018-07-24T20:06:24.225Z,54.20
2018-07-24T20:08:54.074Z,54.60
2018-07-24T20:11:22.688Z,55.20
2018-07-24T20:13:51.285Z,55.80
2018-07-24T20:16:20.862Z,56.10
2018-07-24T20:18:51.311Z,56.60
2018-07-24T20:21:21.487Z,57.00
2018-07-24T20:23:50.171Z,57.20
2018-07-24T20:26:20.768Z,57.80
2018-07-24T20:28:50.547Z,58.00
2018-07-24T20:31:19.640Z,58.40
2018-07-24T20:33:52.454Z,59.00
2018-07-24T20:36:22.945Z,58.90
2018-07-24T20:38:51.754Z,59.40
2018-07-24T20:41:20.266Z,59.60
2018-07-24T20:43:48.996Z,59.80
2018-07-24T20:46:18.033Z,59.90
2018-07-24T20:48:46.755Z,59.90
2018-07-24T20:51:15.477Z,60.10
2018-07-24T20:53:44.079Z,59.80
2018-07-24T20:56:12.591Z,59.80
2018-07-24T20:58:41.250Z,60.40
2018-07-24T21:01:09.960Z,60.60
2018-07-24T21:03:38.503Z,60.70
2018-07-24T21:06:07.148Z,61.50
2018-07-24T21:08:35.895Z,62.80
2018-07-24T21:11:04.819Z,63.20
2018-07-24T21:13:33.408Z,63.60
2018-07-24T21:16:03.768Z,63.60
2018-07-24T21:18:33.044Z,64.10
2018-07-24T21:21:02.222Z,64.80
2018-07-24T21:23:31.435Z,65.10
2018-07-24T21:26:02.314Z,66.20
2018-07-24T21:28:31.541Z,65.60
2018-07-24T21:31:01.002Z,65.90
2018-07-24T21:33:29.655Z,65.40
2018-07-24T21:35:58.230Z,65.60
2018-07-24T21:38:28.369Z,66.00
2018-07-24T21:40:57.517Z,66.40
2018-07-24T21:43:28.425Z,66.60
2018-07-24T21:45:57.625Z,66.80
2018-07-24T21:48:26.438Z,67.00
2018-07-24T21:50:56.041Z,66.80
2018-07-24T21:53:25.956Z,66.70
2018-07-24T21:55:56.574Z,66.60
2018-07-24T21:58:25.278Z,66.90
2018-07-24T22:00:59.070Z,67.80
2018-07-24T22:03:29.539Z,67.40
2018-07-24T22:05:59.584Z,67.40
2018-07-24T22:08:29.150Z,67.10
2018-07-24T22:11:00.151Z,66.00
2018-07-24T22:13:28.730Z,65.90
2018-07-24T22:15:59.869Z,65.90
2018-07-24T22:18:29.080Z,66.20
2018-07-24T22:20:58.572Z,66.30
2018-07-24T22:25:57.450Z,66.30
2018-07-24T22:28:27.611Z,65.30
2018-07-24T22:30:57.472Z,65.70
2018-07-24T22:33:27.228Z,65.80
2018-07-24T22:35:56.060Z,66.00
2018-07-24T22:38:31.772Z,65.50
2018-07-24T22:41:08.762Z,65.00
2018-07-24T22:43:38.093Z,64.60
2018-07-24T22:46:09.456Z,64.50
2018-07-24T22:48:39.406Z,64.20
2018-07-24T22:51:09.513Z,64.30
2018-07-24T22:53:38.275Z,63.80
2018-07-24T22:56:10.329Z,64.00
2018-07-24T22:58:46.418Z,63.40
2018-07-24T23:01:17.667Z,62.60
2018-07-24T23:03:48.864Z,62.40
2018-07-24T23:06:18.089Z,61.50
2018-07-24T23:08:50.889Z,61.20
2018-07-24T23:11:19.432Z,60.90
2018-07-24T23:13:49.463Z,60.90
2018-07-24T23:16:20.096Z,61.10
2018-07-24T23:18:49.479Z,61.20
2018-07-24T23:21:18.753Z,61.10
